Погода Пеликштына 2 недели

Минская область, Белоруссия

23 июля-05 августа
  • 23июля
    Сегодня
    +15°
    +26°
    Ясно и безоблачно
    ВремяПогодаТемператураВлажностьДавлениеВетер, м/сВероятность осадков
    00:00Ясно и безоблачно+18°C82 %741 мм1.5 м/с2 %
    03:00Ясно и безоблачно+15°C93 %741 мм2.3 м/с2 %
    06:00Ясно и безоблачно+15°C94 %742 мм1.6 м/с2 %
    09:00Ясно и безоблачно+21°C79 %742 мм2.2 м/с2 %
    12:00Ясно и безоблачно+23°C60 %742 мм2.0 м/с1 %
    15:00Ясно и безоблачно+25°C52 %742 мм2.2 м/с10 %
    18:00Ясно и безоблачно+25°C52 %741 мм2.1 м/с21 %
    21:00Облачно с прояснениями+22°C68 %742 мм2.2 м/с6 %
  • 24июля
    Среда
    +15°
    +25°
    Небольшая облачность и лёгкий дождик
    ВремяПогодаТемператураВлажностьДавлениеВетер, м/сВероятность осадков
    00:00Облачно с прояснениями+18°C81 %741 мм1.8 м/с2 %
    03:00Облачно с прояснениями+17°C86 %741 мм1.8 м/с2 %
    06:00Облачно с прояснениями+16°C84 %741 мм2.1 м/с2 %
    09:00Облачно с прояснениями+20°C65 %741 мм2.6 м/с2 %
    12:00Практически безоблачно+23°C48 %741 мм2.4 м/с2 %
    15:00Небольшая облачность и лёгкий дождик+25°C46 %740 мм2.5 м/с37 %
    18:00Небольшая облачность и лёгкий дождик+24°C45 %740 мм2.8 м/с32 %
    21:00Небольшая облачность+21°C59 %739 мм2.6 м/с5 %
  • 25июля
    Четверг
    +14°
    +25°
    Облачно с прояснениями
    ВремяПогодаТемператураВлажностьДавлениеВетер, м/сВероятность осадков
    00:00Ясно и безоблачно+18°C79 %739 мм2.9 м/с2 %
    03:00Ясно и безоблачно+16°C83 %739 мм2.7 м/с2 %
    06:00Ясно и безоблачно+15°C80 %739 мм2.7 м/с2 %
    09:00Небольшая облачность+20°C60 %739 мм3.0 м/с2 %
    12:00Небольшая облачность+23°C42 %739 мм4.0 м/с2 %
    15:00Облачно с прояснениями+24°C39 %739 мм4.2 м/с12 %
    18:00Практически безоблачно+25°C36 %738 мм3.6 м/с12 %
    21:00Ясно и безоблачно+20°C50 %739 мм3.0 м/с6 %
  • 26июля
    Пятница
    +16°
    +26°
    Практически безоблачно
    ВремяПогодаТемператураВлажностьДавлениеВетер, м/сВероятность осадков
    00:00Ясно и безоблачно+17°C66 %739 мм2.9 м/с5 %
    03:00Небольшая облачность+15°C75 %739 мм2.2 м/с7 %
    06:00Практически безоблачно+16°C72 %740 мм2.4 м/с6 %
    09:00Практически безоблачно+20°C56 %741 мм2.1 м/с6 %
    12:00Небольшая облачность+24°C37 %741 мм1.0 м/с12 %
    15:00Практически безоблачно+25°C35 %741 мм1.1 м/с20 %
    18:00Практически безоблачно+25°C35 %742 мм1.4 м/с24 %
    21:00Практически безоблачно+22°C48 %742 мм1.2 м/с16 %
  • 27июля
    Суббота
    +17°
    +27°
    Ясно и безоблачно
    ВремяПогодаТемператураВлажностьДавлениеВетер, м/сВероятность осадков
    00:00Ясно и безоблачно+17°C73 %743 мм2.3 м/с2 %
    03:00Облачно с прояснениями+17°C76 %743 мм2.1 м/с2 %
    06:00Ясно и безоблачно+17°C73 %744 мм2.1 м/с4 %
    09:00Ясно и безоблачно+22°C58 %744 мм2.0 м/с2 %
    12:00Облачно с прояснениями+25°C36 %745 мм1.8 м/с14 %
    15:00Ясно и безоблачно+27°C36 %745 мм2.1 м/с37 %
    18:00Ясно и безоблачно+26°C38 %744 мм2.0 м/с39 %
    21:00Ясно и безоблачно+22°C56 %745 мм2.2 м/с10 %
Мы используем cookies
Соглашаюсь